sensor_id;sensor_type;location;lat;lon;timestamp;temperature;humidity
38582;DHT22;24349;53.720;10.014;2023-04-19T00:01:18;5.40;96.10
38582;DHT22;24349;53.720;10.014;2023-04-19T00:03:44;5.30;95.20
38582;DHT22;24349;53.720;10.014;2023-04-19T00:06:10;5.30;96.50
38582;DHT22;24349;53.720;10.014;2023-04-19T00:08:38;5.30;95.60
38582;DHT22;24349;53.720;10.014;2023-04-19T00:11:04;5.40;94.20
38582;DHT22;24349;53.720;10.014;2023-04-19T00:13:29;5.40;92.20
38582;DHT22;24349;53.720;10.014;2023-04-19T00:15:55;5.40;86.20
38582;DHT22;24349;53.720;10.014;2023-04-19T00:18:21;5.40;80.20
38582;DHT22;24349;53.720;10.014;2023-04-19T00:20:46;5.30;71.30
38582;DHT22;24349;53.720;10.014;2023-04-19T00:23:13;5.30;67.80
38582;DHT22;24349;53.720;10.014;2023-04-19T00:25:38;5.40;68.50
38582;DHT22;24349;53.720;10.014;2023-04-19T00:28:04;5.40;61.70
38582;DHT22;24349;53.720;10.014;2023-04-19T00:30:30;5.40;58.60
38582;DHT22;24349;53.720;10.014;2023-04-19T00:32:55;5.40;49.50
38582;DHT22;24349;53.720;10.014;2023-04-19T00:35:21;5.30;48.10
38582;DHT22;24349;53.720;10.014;2023-04-19T00:37:46;5.30;45.80
38582;DHT22;24349;53.720;10.014;2023-04-19T00:40:12;5.30;47.00
38582;DHT22;24349;53.720;10.014;2023-04-19T00:42:38;5.30;45.40
38582;DHT22;24349;53.720;10.014;2023-04-19T00:45:04;5.30;33.50
38582;DHT22;24349;53.720;10.014;2023-04-19T00:47:30;5.40;27.30
38582;DHT22;24349;53.720;10.014;2023-04-19T00:49:55;5.30;23.80
38582;DHT22;24349;53.720;10.014;2023-04-19T00:52:22;5.30;19.00
38582;DHT22;24349;53.720;10.014;2023-04-19T00:54:48;5.30;15.00
38582;DHT22;24349;53.720;10.014;2023-04-19T00:57:14;5.30;16.70
38582;DHT22;24349;53.720;10.014;2023-04-19T00:59:41;5.30;11.00
38582;DHT22;24349;53.720;10.014;2023-04-19T01:02:07;5.20;7.20
38582;DHT22;24349;53.720;10.014;2023-04-19T01:04:33;5.20;16.10
38582;DHT22;24349;53.720;10.014;2023-04-19T01:06:59;5.20;11.80
38582;DHT22;24349;53.720;10.014;2023-04-19T01:09:25;5.20;11.50
38582;DHT22;24349;53.720;10.014;2023-04-19T01:11:51;5.20;5.80
38582;DHT22;24349;53.720;10.014;2023-04-19T01:14:17;5.20;3.20
38582;DHT22;24349;53.720;10.014;2023-04-19T01:16:42;5.10;1.00
38582;DHT22;24349;53.720;10.014;2023-04-19T01:19:10;5.10;1.00
38582;DHT22;24349;53.720;10.014;2023-04-19T01:21:36;5.10;1.00
38582;DHT22;24349;53.720;10.014;2023-04-19T01:24:04;5.10;1.00
38582;DHT22;24349;53.720;10.014;2023-04-19T01:26:29;5.10;1.00
38582;DHT22;24349;53.720;10.014;2023-04-19T01:28:55;5.00;1.00
38582;DHT22;24349;53.720;10.014;2023-04-19T01:31:21;5.00;1.00
38582;DHT22;24349;53.720;10.014;2023-04-19T01:33:46;5.00;1.00
38582;DHT22;24349;53.720;10.014;2023-04-19T01:36:12;4.90;1.00
38582;DHT22;24349;53.720;10.014;2023-04-19T01:38:38;4.80;8.00
38582;DHT22;24349;53.720;10.014;2023-04-19T01:41:03;4.80;14.10
38582;DHT22;24349;53.720;10.014;2023-04-19T01:43:29;4.70;28.90
38582;DHT22;24349;53.720;10.014;2023-04-19T01:45:54;4.70;41.10
38582;DHT22;24349;53.720;10.014;2023-04-19T01:48:20;4.60;46.20
38582;DHT22;24349;53.720;10.014;2023-04-19T01:50:45;4.60;61.20
38582;DHT22;24349;53.720;10.014;2023-04-19T01:53:11;4.60;65.20
38582;DHT22;24349;53.720;10.014;2023-04-19T01:55:38;4.50;71.50
38582;DHT22;24349;53.720;10.014;2023-04-19T01:58:03;4.50;79.30
38582;DHT22;24349;53.720;10.014;2023-04-19T02:00:29;4.50;83.00
38582;DHT22;24349;53.720;10.014;2023-04-19T02:02:55;4.50;83.40
38582;DHT22;24349;53.720;10.014;2023-04-19T02:05:21;4.50;89.00
38582;DHT22;24349;53.720;10.014;2023-04-19T02:07:46;4.50;89.30
38582;DHT22;24349;53.720;10.014;2023-04-19T02:10:12;4.50;90.00
38582;DHT22;24349;53.720;10.014;2023-04-19T02:12:38;4.50;90.50
38582;DHT22;24349;53.720;10.014;2023-04-19T02:15:03;4.50;91.90
38582;DHT22;24349;53.720;10.014;2023-04-19T02:17:29;4.50;91.20
38582;DHT22;24349;53.720;10.014;2023-04-19T02:19:56;4.50;93.90
38582;DHT22;24349;53.720;10.014;2023-04-19T02:22:21;4.50;93.10
38582;DHT22;24349;53.720;10.014;2023-04-19T02:24:49;4.60;92.30
38582;DHT22;24349;53.720;10.014;2023-04-19T02:27:15;4.50;90.60
38582;DHT22;24349;53.720;10.014;2023-04-19T02:29:40;4.50;90.50
38582;DHT22;24349;53.720;10.014;2023-04-19T02:32:06;4.50;91.70
38582;DHT22;24349;53.720;10.014;2023-04-19T02:34:32;4.50;91.20
38582;DHT22;24349;53.720;10.014;2023-04-19T02:36:58;4.50;90.60
38582;DHT22;24349;53.720;10.014;2023-04-19T02:39:24;4.50;92.90
38582;DHT22;24349;53.720;10.014;2023-04-19T02:41:50;4.50;91.00
38582;DHT22;24349;53.720;10.014;2023-04-19T02:44:16;4.60;88.80
38582;DHT22;24349;53.720;10.014;2023-04-19T02:46:50;4.70;83.80
38582;DHT22;24349;53.720;10.014;2023-04-19T02:49:16;4.70;81.30
38582;DHT22;24349;53.720;10.014;2023-04-19T02:51:42;4.80;72.40
38582;DHT22;24349;53.720;10.014;2023-04-19T02:54:08;4.80;62.90
38582;DHT22;24349;53.720;10.014;2023-04-19T02:56:33;4.80;52.90
38582;DHT22;24349;53.720;10.014;2023-04-19T02:59:03;4.80;47.20
38582;DHT22;24349;53.720;10.014;2023-04-19T03:01:29;4.80;44.00
38582;DHT22;24349;53.720;10.014;2023-04-19T03:03:55;4.90;40.40
38582;DHT22;24349;53.720;10.014;2023-04-19T03:06:20;4.90;30.20
38582;DHT22;24349;53.720;10.014;2023-04-19T03:08:46;4.80;29.10
38582;DHT22;24349;53.720;10.014;2023-04-19T03:11:14;4.80;29.50
38582;DHT22;24349;53.720;10.014;2023-04-19T03:13:40;4.80;28.50
38582;DHT22;24349;53.720;10.014;2023-04-19T03:16:06;4.70;24.60
38582;DHT22;24349;53.720;10.014;2023-04-19T03:18:32;4.70;27.10
38582;DHT22;24349;53.720;10.014;2023-04-19T03:20:57;4.70;25.70
38582;DHT22;24349;53.720;10.014;2023-04-19T03:23:25;4.60;29.90
38582;DHT22;24349;53.720;10.014;2023-04-19T03:25:51;4.60;28.40
38582;DHT22;24349;53.720;10.014;2023-04-19T03:28:16;4.50;32.40
38582;DHT22;24349;53.720;10.014;2023-04-19T03:30:42;4.50;31.80
38582;DHT22;24349;53.720;10.014;2023-04-19T03:33:07;4.50;38.90
38582;DHT22;24349;53.720;10.014;2023-04-19T03:35:33;4.50;38.50
38582;DHT22;24349;53.720;10.014;2023-04-19T03:37:59;4.50;38.40
38582;DHT22;24349;53.720;10.014;2023-04-19T03:40:24;4.50;34.70
38582;DHT22;24349;53.720;10.014;2023-04-19T03:42:50;4.50;37.80
38582;DHT22;24349;53.720;10.014;2023-04-19T03:45:16;4.40;32.60
38582;DHT22;24349;53.720;10.014;2023-04-19T03:47:41;4.40;42.70
38582;DHT22;24349;53.720;10.014;2023-04-19T03:50:07;4.40;45.30
38582;DHT22;24349;53.720;10.014;2023-04-19T03:52:33;4.40;42.40
38582;DHT22;24349;53.720;10.014;2023-04-19T03:54:59;4.30;42.10
38582;DHT22;24349;53.720;10.014;2023-04-19T03:57:25;4.30;36.10
38582;DHT22;24349;53.720;10.014;2023-04-19T03:59:50;4.30;43.40
38582;DHT22;24349;53.720;10.014;2023-04-19T04:02:16;4.30;37.20
38582;DHT22;24349;53.720;10.014;2023-04-19T04:04:41;4.30;41.60
38582;DHT22;24349;53.720;10.014;2023-04-19T04:07:07;4.30;47.20
38582;DHT22;24349;53.720;10.014;2023-04-19T04:09:33;4.30;39.10
38582;DHT22;24349;53.720;10.014;2023-04-19T04:11:58;4.20;43.80
38582;DHT22;24349;53.720;10.014;2023-04-19T04:14:24;4.20;42.00
38582;DHT22;24349;53.720;10.014;2023-04-19T04:16:49;4.20;46.30
38582;DHT22;24349;53.720;10.014;2023-04-19T04:19:16;4.20;43.60
38582;DHT22;24349;53.720;10.014;2023-04-19T04:21:42;4.20;42.80
38582;DHT22;24349;53.720;10.014;2023-04-19T04:24:08;4.20;46.80
38582;DHT22;24349;53.720;10.014;2023-04-19T04:26:34;4.20;43.80
38582;DHT22;24349;53.720;10.014;2023-04-19T04:29:00;4.20;53.80
38582;DHT22;24349;53.720;10.014;2023-04-19T04:31:28;4.20;53.10
38582;DHT22;24349;53.720;10.014;2023-04-19T04:33:54;4.30;50.20
38582;DHT22;24349;53.720;10.014;2023-04-19T04:36:20;4.30;42.70
38582;DHT22;24349;53.720;10.014;2023-04-19T04:38:46;4.40;43.50
38582;DHT22;24349;53.720;10.014;2023-04-19T04:41:12;4.50;30.70
38582;DHT22;24349;53.720;10.014;2023-04-19T04:43:37;4.50;23.60
38582;DHT22;24349;53.720;10.014;2023-04-19T04:46:04;4.60;17.10
38582;DHT22;24349;53.720;10.014;2023-04-19T04:48:29;4.70;10.00
38582;DHT22;24349;53.720;10.014;2023-04-19T04:50:56;4.70;1.00
38582;DHT22;24349;53.720;10.014;2023-04-19T04:53:24;4.80;1.00
38582;DHT22;24349;53.720;10.014;2023-04-19T04:55:52;4.80;1.00
38582;DHT22;24349;53.720;10.014;2023-04-19T04:58:18;4.90;1.00
38582;DHT22;24349;53.720;10.014;2023-04-19T05:00:44;5.00;32.50
38582;DHT22;24349;53.720;10.014;2023-04-19T05:03:10;5.10;99.90
38582;DHT22;24349;53.720;10.014;2023-04-19T05:05:35;5.20;99.90
38582;DHT22;24349;53.720;10.014;2023-04-19T05:08:01;5.30;99.90
38582;DHT22;24349;53.720;10.014;2023-04-19T05:10:26;5.50;99.90
38582;DHT22;24349;53.720;10.014;2023-04-19T05:12:52;5.60;99.90
38582;DHT22;24349;53.720;10.014;2023-04-19T05:15:18;5.80;99.90
38582;DHT22;24349;53.720;10.014;2023-04-19T05:17:43;5.90;99.90
38582;DHT22;24349;53.720;10.014;2023-04-19T05:20:10;5.90;99.90
38582;DHT22;24349;53.720;10.014;2023-04-19T05:22:36;6.10;99.90
38582;DHT22;24349;53.720;10.014;2023-04-19T05:25:02;6.20;99.90
38582;DHT22;24349;53.720;10.014;2023-04-19T05:27:28;6.30;99.90
38582;DHT22;24349;53.720;10.014;2023-04-19T05:29:53;6.50;99.90
38582;DHT22;24349;53.720;10.014;2023-04-19T05:32:19;6.80;99.90
38582;DHT22;24349;53.720;10.014;2023-04-19T05:34:45;7.10;99.90
38582;DHT22;24349;53.720;10.014;2023-04-19T05:37:10;7.40;99.90
38582;DHT22;24349;53.720;10.014;2023-04-19T05:39:36;7.60;99.90
38582;DHT22;24349;53.720;10.014;2023-04-19T05:42:01;7.80;99.90
38582;DHT22;24349;53.720;10.014;2023-04-19T05:44:27;8.00;99.90
38582;DHT22;24349;53.720;10.014;2023-04-19T05:46:53;8.30;99.90
38582;DHT22;24349;53.720;10.014;2023-04-19T05:49:18;8.70;99.90
38582;DHT22;24349;53.720;10.014;2023-04-19T05:51:44;9.00;99.90
38582;DHT22;24349;53.720;10.014;2023-04-19T05:54:09;9.10;99.90
38582;DHT22;24349;53.720;10.014;2023-04-19T05:56:37;9.20;99.90
38582;DHT22;24349;53.720;10.014;2023-04-19T05:59:03;9.60;99.90
38582;DHT22;24349;53.720;10.014;2023-04-19T06:01:29;9.70;99.90
38582;DHT22;24349;53.720;10.014;2023-04-19T06:03:54;9.80;99.90
38582;DHT22;24349;53.720;10.014;2023-04-19T06:06:21;10.20;99.90
38582;DHT22;24349;53.720;10.014;2023-04-19T06:08:48;10.30;99.90
38582;DHT22;24349;53.720;10.014;2023-04-19T06:11:13;10.70;99.90
38582;DHT22;24349;53.720;10.014;2023-04-19T06:13:39;10.70;99.90
38582;DHT22;24349;53.720;10.014;2023-04-19T06:16:05;10.70;99.90
38582;DHT22;24349;53.720;10.014;2023-04-19T06:18:31;10.90;99.90
38582;DHT22;24349;53.720;10.014;2023-04-19T06:20:56;11.10;99.90
38582;DHT22;24349;53.720;10.014;2023-04-19T06:23:22;11.10;99.90
38582;DHT22;24349;53.720;10.014;2023-04-19T06:25:47;11.60;99.90
38582;DHT22;24349;53.720;10.014;2023-04-19T06:28:13;11.70;99.90
38582;DHT22;24349;53.720;10.014;2023-04-19T06:30:39;11.90;99.90
38582;DHT22;24349;53.720;10.014;2023-04-19T06:33:05;12.00;99.90
38582;DHT22;24349;53.720;10.014;2023-04-19T06:35:31;12.00;99.90
38582;DHT22;24349;53.720;10.014;2023-04-19T06:37:58;11.90;99.90
38582;DHT22;24349;53.720;10.014;2023-04-19T06:40:25;12.00;99.90
38582;DHT22;24349;53.720;10.014;2023-04-19T06:42:53;12.60;99.90
38582;DHT22;24349;53.720;10.014;2023-04-19T06:45:18;13.00;99.90
38582;DHT22;24349;53.720;10.014;2023-04-19T06:47:44;13.20;99.90
38582;DHT22;24349;53.720;10.014;2023-04-19T06:50:10;13.30;99.90
38582;DHT22;24349;53.720;10.014;2023-04-19T06:52:36;13.40;99.90
38582;DHT22;24349;53.720;10.014;2023-04-19T06:55:01;13.30;99.90
38582;DHT22;24349;53.720;10.014;2023-04-19T06:57:28;13.30;99.90
38582;DHT22;24349;53.720;10.014;2023-04-19T06:59:56;13.60;99.90
38582;DHT22;24349;53.720;10.014;2023-04-19T07:02:22;13.70;99.90
38582;DHT22;24349;53.720;10.014;2023-04-19T07:04:48;14.20;99.90
38582;DHT22;24349;53.720;10.014;2023-04-19T07:07:14;14.40;99.90
38582;DHT22;24349;53.720;10.014;2023-04-19T07:09:40;14.80;99.90
38582;DHT22;24349;53.720;10.014;2023-04-19T07:12:05;14.90;99.90
38582;DHT22;24349;53.720;10.014;2023-04-19T07:14:31;15.10;99.90
38582;DHT22;24349;53.720;10.014;2023-04-19T07:16:57;15.20;99.90
38582;DHT22;24349;53.720;10.014;2023-04-19T07:19:22;15.40;99.90
38582;DHT22;24349;53.720;10.014;2023-04-19T07:21:49;15.90;99.90
38582;DHT22;24349;53.720;10.014;2023-04-19T07:24:15;15.90;99.90
38582;DHT22;24349;53.720;10.014;2023-04-19T07:26:41;15.90;99.90
38582;DHT22;24349;53.720;10.014;2023-04-19T07:29:09;16.10;99.90
38582;DHT22;24349;53.720;10.014;2023-04-19T07:31:35;16.70;99.90
38582;DHT22;24349;53.720;10.014;2023-04-19T07:34:01;16.40;99.90
38582;DHT22;24349;53.720;10.014;2023-04-19T07:36:26;16.20;99.70
38582;DHT22;24349;53.720;10.014;2023-04-19T07:38:52;16.10;99.30
38582;DHT22;24349;53.720;10.014;2023-04-19T07:41:18;16.10;99.90
38582;DHT22;24349;53.720;10.014;2023-04-19T07:43:43;16.10;99.10
38582;DHT22;24349;53.720;10.014;2023-04-19T07:46:10;16.40;99.80
38582;DHT22;24349;53.720;10.014;2023-04-19T07:48:36;16.60;98.70
38582;DHT22;24349;53.720;10.014;2023-04-19T07:51:10;16.70;98.10
38582;DHT22;24349;53.720;10.014;2023-04-19T07:53:37;16.40;97.80
38582;DHT22;24349;53.720;10.014;2023-04-19T07:56:07;16.50;97.70
38582;DHT22;24349;53.720;10.014;2023-04-19T07:58:34;16.80;97.40
38582;DHT22;24349;53.720;10.014;2023-04-19T08:00:59;16.30;97.70
38582;DHT22;24349;53.720;10.014;2023-04-19T08:03:26;16.00;97.90
38582;DHT22;24349;53.720;10.014;2023-04-19T08:05:51;15.70;98.30
38582;DHT22;24349;53.720;10.014;2023-04-19T08:08:17;15.70;97.70
38582;DHT22;24349;53.720;10.014;2023-04-19T08:10:43;15.70;98.70
38582;DHT22;24349;53.720;10.014;2023-04-19T08:13:08;15.80;98.40
38582;DHT22;24349;53.720;10.014;2023-04-19T08:15:34;15.70;97.70
38582;DHT22;24349;53.720;10.014;2023-04-19T08:18:00;15.90;98.60
38582;DHT22;24349;53.720;10.014;2023-04-19T08:20:29;16.30;96.90
38582;DHT22;24349;53.720;10.014;2023-04-19T08:22:55;16.30;96.70
38582;DHT22;24349;53.720;10.014;2023-04-19T08:25:21;16.30;97.30
38582;DHT22;24349;53.720;10.014;2023-04-19T08:27:51;16.40;97.50
38582;DHT22;24349;53.720;10.014;2023-04-19T08:30:16;16.20;96.90
38582;DHT22;24349;53.720;10.014;2023-04-19T08:32:42;16.20;96.30
38582;DHT22;24349;53.720;10.014;2023-04-19T08:35:08;16.30;97.90
38582;DHT22;24349;53.720;10.014;2023-04-19T08:37:34;16.00;96.40
38582;DHT22;24349;53.720;10.014;2023-04-19T08:39:59;16.00;97.10
38582;DHT22;24349;53.720;10.014;2023-04-19T08:42:25;16.30;96.20
38582;DHT22;24349;53.720;10.014;2023-04-19T08:44:52;16.10;96.40
38582;DHT22;24349;53.720;10.014;2023-04-19T08:47:19;15.60;96.50
38582;DHT22;24349;53.720;10.014;2023-04-19T08:49:47;15.10;96.30
38582;DHT22;24349;53.720;10.014;2023-04-19T08:52:13;15.20;96.50
38582;DHT22;24349;53.720;10.014;2023-04-19T08:54:40;14.90;96.30
38582;DHT22;24349;53.720;10.014;2023-04-19T08:57:07;14.70;95.80
38582;DHT22;24349;53.720;10.014;2023-04-19T08:59:33;14.30;96.40
38582;DHT22;24349;53.720;10.014;2023-04-19T09:02:02;14.30;97.00
38582;DHT22;24349;53.720;10.014;2023-04-19T09:04:28;14.30;96.90
38582;DHT22;24349;53.720;10.014;2023-04-19T09:06:54;14.70;98.60
38582;DHT22;24349;53.720;10.014;2023-04-19T09:09:28;14.60;96.60
38582;DHT22;24349;53.720;10.014;2023-04-19T09:11:54;14.60;96.60
38582;DHT22;24349;53.720;10.014;2023-04-19T09:14:21;14.70;96.50
38582;DHT22;24349;53.720;10.014;2023-04-19T09:16:47;14.50;96.70
38582;DHT22;24349;53.720;10.014;2023-04-19T09:19:13;14.80;96.70
38582;DHT22;24349;53.720;10.014;2023-04-19T09:21:40;14.40;95.90
38582;DHT22;24349;53.720;10.014;2023-04-19T09:24:06;14.80;97.00
38582;DHT22;24349;53.720;10.014;2023-04-19T09:26:33;15.60;98.10
38582;DHT22;24349;53.720;10.014;2023-04-19T09:29:06;16.30;96.90
38582;DHT22;24349;53.720;10.014;2023-04-19T09:31:33;16.60;96.50
38582;DHT22;24349;53.720;10.014;2023-04-19T09:34:17;16.90;94.70
38582;DHT22;24349;53.720;10.014;2023-04-19T09:36:42;17.10;94.60
38582;DHT22;24349;53.720;10.014;2023-04-19T09:39:09;17.40;94.40
38582;DHT22;24349;53.720;10.014;2023-04-19T09:41:49;17.60;93.20
38582;DHT22;24349;53.720;10.014;2023-04-19T09:44:14;17.50;93.50
38582;DHT22;24349;53.720;10.014;2023-04-19T09:46:41;17.60;91.10
38582;DHT22;24349;53.720;10.014;2023-04-19T09:54:08;15.80;90.40
38582;DHT22;24349;53.720;10.014;2023-04-19T09:56:35;15.60;90.00
38582;DHT22;24349;53.720;10.014;2023-04-19T09:59:05;16.00;89.60
38582;DHT22;24349;53.720;10.014;2023-04-19T10:04:04;16.60;88.80
38582;DHT22;24349;53.720;10.014;2023-04-19T10:06:31;17.10;87.80
38582;DHT22;24349;53.720;10.014;2023-04-19T10:09:00;16.90;87.20
38582;DHT22;24349;53.720;10.014;2023-04-19T10:11:31;16.80;88.20
38582;DHT22;24349;53.720;10.014;2023-04-19T10:14:06;17.20;89.00
38582;DHT22;24349;53.720;10.014;2023-04-19T10:16:33;17.30;85.70
38582;DHT22;24349;53.720;10.014;2023-04-19T10:19:01;17.90;87.40
38582;DHT22;24349;53.720;10.014;2023-04-19T10:21:27;17.50;85.70
38582;DHT22;24349;53.720;10.014;2023-04-19T10:23:54;17.30;83.40
38582;DHT22;24349;53.720;10.014;2023-04-19T10:26:21;17.50;85.40
38582;DHT22;24349;53.720;10.014;2023-04-19T10:28:47;17.40;81.80
38582;DHT22;24349;53.720;10.014;2023-04-19T10:31:13;17.80;81.00
38582;DHT22;24349;53.720;10.014;2023-04-19T10:33:39;17.90;80.70
38582;DHT22;24349;53.720;10.014;2023-04-19T10:36:08;18.00;79.50
38582;DHT22;24349;53.720;10.014;2023-04-19T10:38:42;18.30;77.70
38582;DHT22;24349;53.720;10.014;2023-04-19T10:41:09;17.80;76.00
38582;DHT22;24349;53.720;10.014;2023-04-19T10:43:42;17.70;81.70
38582;DHT22;24349;53.720;10.014;2023-04-19T10:46:08;17.90;77.30
38582;DHT22;24349;53.720;10.014;2023-04-19T10:48:36;18.20;76.90
38582;DHT22;24349;53.720;10.014;2023-04-19T10:51:10;17.90;76.20
38582;DHT22;24349;53.720;10.014;2023-04-19T10:53:56;17.20;77.40
38582;DHT22;24349;53.720;10.014;2023-04-19T11:01:48;16.90;74.40
38582;DHT22;24349;53.720;10.014;2023-04-19T11:04:22;16.50;70.60
38582;DHT22;24349;53.720;10.014;2023-04-19T11:09:39;16.40;74.20
38582;DHT22;24349;53.720;10.014;2023-04-19T11:12:09;16.80;71.00
38582;DHT22;24349;53.720;10.014;2023-04-19T11:14:42;17.40;71.70
38582;DHT22;24349;53.720;10.014;2023-04-19T11:17:21;17.30;70.10
38582;DHT22;24349;53.720;10.014;2023-04-19T11:19:53;17.40;68.50
38582;DHT22;24349;53.720;10.014;2023-04-19T11:25:17;18.60;68.10
38582;DHT22;24349;53.720;10.014;2023-04-19T11:27:46;19.00;66.90
38582;DHT22;24349;53.720;10.014;2023-04-19T11:30:19;19.50;67.20
38582;DHT22;24349;53.720;10.014;2023-04-19T11:32:51;19.60;64.40
38582;DHT22;24349;53.720;10.014;2023-04-19T11:35:21;20.30;64.90
38582;DHT22;24349;53.720;10.014;2023-04-19T11:37:47;20.20;61.60
38582;DHT22;24349;53.720;10.014;2023-04-19T11:40:17;19.50;59.60
38582;DHT22;24349;53.720;10.014;2023-04-19T11:42:44;19.60;61.00
38582;DHT22;24349;53.720;10.014;2023-04-19T11:45:10;20.30;60.90
38582;DHT22;24349;53.720;10.014;2023-04-19T11:47:56;20.80;61.30
38582;DHT22;24349;53.720;10.014;2023-04-19T11:50:32;21.80;60.70
38582;DHT22;24349;53.720;10.014;2023-04-19T11:52:59;21.60;61.80
38582;DHT22;24349;53.720;10.014;2023-04-19T11:55:33;21.50;60.00
38582;DHT22;24349;53.720;10.014;2023-04-19T11:57:59;21.90;58.90
38582;DHT22;24349;53.720;10.014;2023-04-19T12:00:28;22.20;58.40
38582;DHT22;24349;53.720;10.014;2023-04-19T12:02:55;21.70;56.70
38582;DHT22;24349;53.720;10.014;2023-04-19T12:05:22;22.00;57.00
38582;DHT22;24349;53.720;10.014;2023-04-19T12:08:06;22.40;58.40
38582;DHT22;24349;53.720;10.014;2023-04-19T12:10:33;21.60;56.90
38582;DHT22;24349;53.720;10.014;2023-04-19T12:12:59;21.80;54.80
38582;DHT22;24349;53.720;10.014;2023-04-19T12:15:44;21.20;54.70
38582;DHT22;24349;53.720;10.014;2023-04-19T12:18:10;21.10;56.20
38582;DHT22;24349;53.720;10.014;2023-04-19T12:20:42;20.90;55.60
38582;DHT22;24349;53.720;10.014;2023-04-19T12:23:07;21.40;55.70
38582;DHT22;24349;53.720;10.014;2023-04-19T12:25:35;21.10;55.10
38582;DHT22;24349;53.720;10.014;2023-04-19T12:28:02;21.50;54.20
38582;DHT22;24349;53.720;10.014;2023-04-19T12:30:28;21.60;56.80
38582;DHT22;24349;53.720;10.014;2023-04-19T12:32:54;20.80;54.90
38582;DHT22;24349;53.720;10.014;2023-04-19T12:35:24;21.50;58.20
38582;DHT22;24349;53.720;10.014;2023-04-19T12:37:52;20.30;53.00
38582;DHT22;24349;53.720;10.014;2023-04-19T12:40:18;20.70;53.20
38582;DHT22;24349;53.720;10.014;2023-04-19T12:42:44;19.90;53.60
38582;DHT22;24349;53.720;10.014;2023-04-19T12:45:10;20.60;55.00
38582;DHT22;24349;53.720;10.014;2023-04-19T12:47:36;21.10;52.90
38582;DHT22;24349;53.720;10.014;2023-04-19T12:50:02;20.90;54.90
38582;DHT22;24349;53.720;10.014;2023-04-19T12:52:27;20.80;56.00
38582;DHT22;24349;53.720;10.014;2023-04-19T12:54:53;21.70;54.00
38582;DHT22;24349;53.720;10.014;2023-04-19T12:57:19;21.70;51.60
38582;DHT22;24349;53.720;10.014;2023-04-19T12:59:44;21.90;51.90
38582;DHT22;24349;53.720;10.014;2023-04-19T13:02:10;22.30;51.90
38582;DHT22;24349;53.720;10.014;2023-04-19T13:04:36;23.20;52.10
38582;DHT22;24349;53.720;10.014;2023-04-19T13:07:01;23.40;51.20
38582;DHT22;24349;53.720;10.014;2023-04-19T13:09:27;21.90;52.30
38582;DHT22;24349;53.720;10.014;2023-04-19T13:11:56;20.50;51.80
38582;DHT22;24349;53.720;10.014;2023-04-19T13:14:23;21.10;51.20
38582;DHT22;24349;53.720;10.014;2023-04-19T13:16:49;21.50;51.30
38582;DHT22;24349;53.720;10.014;2023-04-19T13:19:15;21.00;51.60
38582;DHT22;24349;53.720;10.014;2023-04-19T13:21:40;21.60;50.60
38582;DHT22;24349;53.720;10.014;2023-04-19T13:24:06;20.50;51.10
38582;DHT22;24349;53.720;10.014;2023-04-19T13:26:32;20.00;51.60
38582;DHT22;24349;53.720;10.014;2023-04-19T13:29:01;20.00;50.80
38582;DHT22;24349;53.720;10.014;2023-04-19T13:31:26;20.90;52.90
38582;DHT22;24349;53.720;10.014;2023-04-19T13:33:53;21.40;50.80
38582;DHT22;24349;53.720;10.014;2023-04-19T13:36:18;20.30;51.30
38582;DHT22;24349;53.720;10.014;2023-04-19T13:38:45;20.20;53.40
38582;DHT22;24349;53.720;10.014;2023-04-19T13:41:11;20.80;52.00
38582;DHT22;24349;53.720;10.014;2023-04-19T13:43:36;20.40;51.20
38582;DHT22;24349;53.720;10.014;2023-04-19T13:46:02;21.00;52.50
38582;DHT22;24349;53.720;10.014;2023-04-19T13:48:27;20.80;50.50
38582;DHT22;24349;53.720;10.014;2023-04-19T13:50:57;20.50;51.20
38582;DHT22;24349;53.720;10.014;2023-04-19T13:53:24;20.60;51.60
38582;DHT22;24349;53.720;10.014;2023-04-19T13:55:50;20.60;51.30
38582;DHT22;24349;53.720;10.014;2023-04-19T13:58:17;20.40;51.60
38582;DHT22;24349;53.720;10.014;2023-04-19T14:00:43;20.70;52.70
38582;DHT22;24349;53.720;10.014;2023-04-19T14:03:08;21.40;50.70
38582;DHT22;24349;53.720;10.014;2023-04-19T14:05:34;21.00;50.70
38582;DHT22;24349;53.720;10.014;2023-04-19T14:08:00;21.60;50.20
38582;DHT22;24349;53.720;10.014;2023-04-19T14:10:26;20.40;50.00
38582;DHT22;24349;53.720;10.014;2023-04-19T14:12:51;19.90;51.80
38582;DHT22;24349;53.720;10.014;2023-04-19T14:15:20;19.90;49.70
38582;DHT22;24349;53.720;10.014;2023-04-19T14:17:48;19.90;51.40
38582;DHT22;24349;53.720;10.014;2023-04-19T14:20:14;20.40;50.70
38582;DHT22;24349;53.720;10.014;2023-04-19T14:22:40;20.70;52.70
38582;DHT22;24349;53.720;10.014;2023-04-19T14:25:06;20.30;51.30
38582;DHT22;24349;53.720;10.014;2023-04-19T14:27:31;19.00;51.20
38582;DHT22;24349;53.720;10.014;2023-04-19T14:29:57;19.60;51.10
38582;DHT22;24349;53.720;10.014;2023-04-19T14:32:23;20.20;50.20
38582;DHT22;24349;53.720;10.014;2023-04-19T14:34:49;20.00;50.40
38582;DHT22;24349;53.720;10.014;2023-04-19T14:37:15;20.30;50.40
38582;DHT22;24349;53.720;10.014;2023-04-19T14:39:43;19.70;50.20
38582;DHT22;24349;53.720;10.014;2023-04-19T14:42:08;19.60;50.40
38582;DHT22;24349;53.720;10.014;2023-04-19T14:44:34;19.50;49.40
38582;DHT22;24349;53.720;10.014;2023-04-19T14:47:00;19.50;50.00
38582;DHT22;24349;53.720;10.014;2023-04-19T14:49:25;19.20;50.40
38582;DHT22;24349;53.720;10.014;2023-04-19T14:51:51;19.10;51.50
38582;DHT22;24349;53.720;10.014;2023-04-19T14:54:17;19.10;50.90
38582;DHT22;24349;53.720;10.014;2023-04-19T14:56:42;19.00;49.40
38582;DHT22;24349;53.720;10.014;2023-04-19T14:59:08;19.20;51.20
38582;DHT22;24349;53.720;10.014;2023-04-19T15:01:34;19.90;50.70
38582;DHT22;24349;53.720;10.014;2023-04-19T15:03:59;20.30;51.10
38582;DHT22;24349;53.720;10.014;2023-04-19T15:06:25;20.60;51.00
38582;DHT22;24349;53.720;10.014;2023-04-19T15:08:51;21.00;50.30
38582;DHT22;24349;53.720;10.014;2023-04-19T15:11:16;21.40;50.10
38582;DHT22;24349;53.720;10.014;2023-04-19T15:13:42;21.00;49.10
38582;DHT22;24349;53.720;10.014;2023-04-19T15:16:08;19.60;48.90
38582;DHT22;24349;53.720;10.014;2023-04-19T15:18:34;19.50;50.40
38582;DHT22;24349;53.720;10.014;2023-04-19T15:21:02;19.50;50.60
38582;DHT22;24349;53.720;10.014;2023-04-19T15:23:27;19.50;50.40
38582;DHT22;24349;53.720;10.014;2023-04-19T15:25:54;19.10;50.40
38582;DHT22;24349;53.720;10.014;2023-04-19T15:28:21;19.30;50.90
38582;DHT22;24349;53.720;10.014;2023-04-19T15:30:57;19.00;51.80
38582;DHT22;24349;53.720;10.014;2023-04-19T15:33:23;19.90;55.00
38582;DHT22;24349;53.720;10.014;2023-04-19T15:35:52;20.90;53.20
38582;DHT22;24349;53.720;10.014;2023-04-19T15:38:21;20.90;53.40